sensor_id;sensor_type;location;lat;lon;timestamp;pressure;altitude;pressure_sealevel;temperature;humidity
41062;BME280;26812;42.662;23.352;2023-03-22T00:00:34;94544.69;;;10.44;81.63
41062;BME280;26812;42.662;23.352;2023-03-22T00:03:00;94537.59;;;10.60;81.71
41062;BME280;26812;42.662;23.352;2023-03-22T00:05:26;94581.41;;;11.07;79.52
41062;BME280;26812;42.662;23.352;2023-03-22T00:07:51;94529.91;;;10.79;79.25
41062;BME280;26812;42.662;23.352;2023-03-22T00:10:19;94572.75;;;10.93;79.07
41062;BME280;26812;42.662;23.352;2023-03-22T00:12:44;94580.06;;;10.63;80.55
41062;BME280;26812;42.662;23.352;2023-03-22T00:15:10;94563.06;;;10.42;82.01
41062;BME280;26812;42.662;23.352;2023-03-22T00:17:36;94582.53;;;10.39;82.81
41062;BME280;26812;42.662;23.352;2023-03-22T00:20:03;94555.84;;;10.16;83.90
41062;BME280;26812;42.662;23.352;2023-03-22T00:22:31;94571.16;;;10.42;84.43
41062;BME280;26812;42.662;23.352;2023-03-22T00:24:56;94560.94;;;10.56;81.79
41062;BME280;26812;42.662;23.352;2023-03-22T00:27:22;94558.94;;;10.44;82.01
41062;BME280;26812;42.662;23.352;2023-03-22T00:29:54;94568.06;;;10.52;82.69
41062;BME280;26812;42.662;23.352;2023-03-22T00:32:19;94567.34;;;10.43;82.73
41062;BME280;26812;42.662;23.352;2023-03-22T00:34:45;94548.09;;;10.23;83.25
41062;BME280;26812;42.662;23.352;2023-03-22T00:37:10;94556.75;;;10.29;83.30
41062;BME280;26812;42.662;23.352;2023-03-22T00:39:36;94548.47;;;9.96;83.92
41062;BME280;26812;42.662;23.352;2023-03-22T00:42:03;94547.09;;;10.28;84.29
41062;BME280;26812;42.662;23.352;2023-03-22T00:44:29;94544.16;;;10.12;84.05
41062;BME280;26812;42.662;23.352;2023-03-22T00:46:54;94554.69;;;10.35;83.04
41062;BME280;26812;42.662;23.352;2023-03-22T00:49:20;94570.41;;;10.62;82.70
41062;BME280;26812;42.662;23.352;2023-03-22T00:51:46;94540.81;;;10.53;81.40
41062;BME280;26812;42.662;23.352;2023-03-22T00:54:11;94548.16;;;10.44;81.85
41062;BME280;26812;42.662;23.352;2023-03-22T00:56:36;94546.97;;;10.24;82.04
41062;BME280;26812;42.662;23.352;2023-03-22T00:59:03;94556.28;;;10.27;83.14
41062;BME280;26812;42.662;23.352;2023-03-22T01:01:28;94549.53;;;10.21;83.52
41062;BME280;26812;42.662;23.352;2023-03-22T01:03:54;94545.41;;;10.15;83.53
41062;BME280;26812;42.662;23.352;2023-03-22T01:06:19;94541.28;;;10.17;83.94
41062;BME280;26812;42.662;23.352;2023-03-22T01:08:45;94559.09;;;10.39;83.07
41062;BME280;26812;42.662;23.352;2023-03-22T01:11:11;94557.38;;;10.35;82.47
41062;BME280;26812;42.662;23.352;2023-03-22T01:13:37;94559.81;;;10.10;83.08
41062;BME280;26812;42.662;23.352;2023-03-22T01:16:04;94516.38;;;9.82;83.14
41062;BME280;26812;42.662;23.352;2023-03-22T01:18:30;94532.91;;;10.02;83.44
41062;BME280;26812;42.662;23.352;2023-03-22T01:20:55;94528.03;;;9.95;83.46
41062;BME280;26812;42.662;23.352;2023-03-22T01:23:21;94540.53;;;10.00;83.90
41062;BME280;26812;42.662;23.352;2023-03-22T01:25:46;94528.53;;;9.88;84.30
41062;BME280;26812;42.662;23.352;2023-03-22T01:28:12;94508.16;;;9.70;85.17
41062;BME280;26812;42.662;23.352;2023-03-22T01:30:39;94537.25;;;9.85;85.13
41062;BME280;26812;42.662;23.352;2023-03-22T01:33:05;94542.97;;;9.84;85.70
41062;BME280;26812;42.662;23.352;2023-03-22T01:35:32;94534.56;;;9.77;85.70
41062;BME280;26812;42.662;23.352;2023-03-22T01:37:58;94523.50;;;9.70;85.57
41062;BME280;26812;42.662;23.352;2023-03-22T01:40:25;94526.19;;;9.70;85.20
41062;BME280;26812;42.662;23.352;2023-03-22T01:42:54;94515.00;;;9.59;85.95
41062;BME280;26812;42.662;23.352;2023-03-22T01:45:33;94532.53;;;9.65;85.98
41062;BME280;26812;42.662;23.352;2023-03-22T01:48:04;94511.25;;;9.34;88.22
41062;BME280;26812;42.662;23.352;2023-03-22T01:50:31;94524.50;;;9.48;88.14
41062;BME280;26812;42.662;23.352;2023-03-22T01:52:59;94499.06;;;9.28;89.16
41062;BME280;26812;42.662;23.352;2023-03-22T01:55:32;94533.47;;;9.78;87.59
41062;BME280;26812;42.662;23.352;2023-03-22T01:57:58;94527.94;;;9.83;85.41
41062;BME280;26812;42.662;23.352;2023-03-22T02:00:25;94535.34;;;9.86;85.20
41062;BME280;26812;42.662;23.352;2023-03-22T02:02:51;94520.50;;;9.71;85.11
41062;BME280;26812;42.662;23.352;2023-03-22T02:05:18;94528.41;;;9.76;85.83
41062;BME280;26812;42.662;23.352;2023-03-22T02:07:44;94525.56;;;9.81;86.09
41062;BME280;26812;42.662;23.352;2023-03-22T02:10:12;94522.09;;;9.72;85.68
41062;BME280;26812;42.662;23.352;2023-03-22T02:15:22;94530.50;;;9.62;86.02
41062;BME280;26812;42.662;23.352;2023-03-22T02:28:56;94518.47;;;9.59;85.60
41062;BME280;26812;42.662;23.352;2023-03-22T02:50:41;94542.31;;;9.78;84.37
41062;BME280;26812;42.662;23.352;2023-03-22T02:53:19;94544.72;;;9.71;83.95
41062;BME280;26812;42.662;23.352;2023-03-22T02:58:53;94549.91;;;9.85;83.82
41062;BME280;26812;42.662;23.352;2023-03-22T03:01:27;94543.59;;;9.81;83.82
41062;BME280;26812;42.662;23.352;2023-03-22T03:03:56;94541.38;;;9.74;83.83
41062;BME280;26812;42.662;23.352;2023-03-22T03:06:27;94551.19;;;9.79;84.18
41062;BME280;26812;42.662;23.352;2023-03-22T03:08:56;94545.03;;;9.70;84.39
41062;BME280;26812;42.662;23.352;2023-03-22T03:11:23;94557.38;;;9.71;84.45
41062;BME280;26812;42.662;23.352;2023-03-22T03:13:49;94548.38;;;9.58;84.56
41062;BME280;26812;42.662;23.352;2023-03-22T03:16:19;94551.41;;;9.56;84.63
41062;BME280;26812;42.662;23.352;2023-03-22T03:19:09;94558.16;;;9.71;84.06
41062;BME280;26812;42.662;23.352;2023-03-22T03:24:34;94550.75;;;9.42;85.68
41062;BME280;26812;42.662;23.352;2023-03-22T03:27:14;94557.88;;;9.38;85.46
41062;BME280;26812;42.662;23.352;2023-03-22T03:32:51;94563.84;;;9.87;84.58
41062;BME280;26812;42.662;23.352;2023-03-22T03:36:06;94555.13;;;9.90;83.77
41062;BME280;26812;42.662;23.352;2023-03-22T03:38:10;94560.22;;;9.83;82.92
41062;BME280;26812;42.662;23.352;2023-03-22T03:40:42;94557.88;;;9.55;83.86
41062;BME280;26812;42.662;23.352;2023-03-22T03:43:10;94572.56;;;9.75;84.14
41062;BME280;26812;42.662;23.352;2023-03-22T03:45:37;94544.38;;;9.73;83.59
41062;BME280;26812;42.662;23.352;2023-03-22T03:48:09;94557.78;;;9.99;82.16
41062;BME280;26812;42.662;23.352;2023-03-22T03:50:37;94561.47;;;9.77;82.41
41062;BME280;26812;42.662;23.352;2023-03-22T03:53:03;94552.34;;;9.60;83.14
41062;BME280;26812;42.662;23.352;2023-03-22T03:55:29;94578.25;;;9.74;83.20
41062;BME280;26812;42.662;23.352;2023-03-22T03:57:55;94562.75;;;9.71;83.87
41062;BME280;26812;42.662;23.352;2023-03-22T04:00:21;94561.47;;;9.85;82.56
41062;BME280;26812;42.662;23.352;2023-03-22T04:02:46;94570.34;;;9.86;81.56
41062;BME280;26812;42.662;23.352;2023-03-22T04:05:12;94561.34;;;9.64;82.02
41062;BME280;26812;42.662;23.352;2023-03-22T04:07:38;94554.88;;;9.48;82.75
41062;BME280;26812;42.662;23.352;2023-03-22T04:10:03;94553.28;;;9.47;83.39
41062;BME280;26812;42.662;23.352;2023-03-22T04:12:30;94570.06;;;9.61;83.41
41062;BME280;26812;42.662;23.352;2023-03-22T04:14:56;94540.00;;;9.42;83.53
41062;BME280;26812;42.662;23.352;2023-03-22T04:17:22;94576.19;;;9.71;83.11
41062;BME280;26812;42.662;23.352;2023-03-22T04:19:47;94584.25;;;9.88;81.72
41062;BME280;26812;42.662;23.352;2023-03-22T04:22:14;94579.19;;;9.78;82.37
41062;BME280;26812;42.662;23.352;2023-03-22T04:24:43;94580.47;;;9.72;82.30
41062;BME280;26812;42.662;23.352;2023-03-22T04:27:18;94573.38;;;9.58;82.73
41062;BME280;26812;42.662;23.352;2023-03-22T04:29:44;94583.66;;;9.48;83.05
41062;BME280;26812;42.662;23.352;2023-03-22T04:32:14;94574.19;;;9.50;83.92
41062;BME280;26812;42.662;23.352;2023-03-22T04:34:41;94584.91;;;9.68;83.22
41062;BME280;26812;42.662;23.352;2023-03-22T04:37:06;94581.75;;;9.65;82.46
41062;BME280;26812;42.662;23.352;2023-03-22T04:39:32;94598.69;;;9.57;83.82
41062;BME280;26812;42.662;23.352;2023-03-22T04:41:57;94576.72;;;9.38;84.31
41062;BME280;26812;42.662;23.352;2023-03-22T04:44:23;94576.22;;;9.45;84.06
41062;BME280;26812;42.662;23.352;2023-03-22T04:46:48;94594.91;;;9.58;84.15
41062;BME280;26812;42.662;23.352;2023-03-22T04:49:14;94574.16;;;9.42;84.83
41062;BME280;26812;42.662;23.352;2023-03-22T04:51:39;94598.69;;;9.40;84.92
41062;BME280;26812;42.662;23.352;2023-03-22T04:54:05;94599.16;;;9.59;84.38
41062;BME280;26812;42.662;23.352;2023-03-22T04:56:30;94591.41;;;9.58;84.11
41062;BME280;26812;42.662;23.352;2023-03-22T04:58:56;94616.72;;;9.57;84.08
41062;BME280;26812;42.662;23.352;2023-03-22T05:01:21;94618.44;;;9.44;84.87
41062;BME280;26812;42.662;23.352;2023-03-22T05:03:46;94614.50;;;9.42;85.56
41062;BME280;26812;42.662;23.352;2023-03-22T05:06:13;94584.91;;;9.16;85.30
41062;BME280;26812;42.662;23.352;2023-03-22T05:08:38;94625.28;;;9.50;84.86
41062;BME280;26812;42.662;23.352;2023-03-22T05:11:08;94599.00;;;9.21;85.24
41062;BME280;26812;42.662;23.352;2023-03-22T05:13:34;94633.66;;;9.66;85.29
41062;BME280;26812;42.662;23.352;2023-03-22T05:16:08;94618.28;;;9.75;82.97
41062;BME280;26812;42.662;23.352;2023-03-22T05:18:34;94627.78;;;9.90;83.13
41062;BME280;26812;42.662;23.352;2023-03-22T05:21:02;94637.94;;;9.84;82.38
41062;BME280;26812;42.662;23.352;2023-03-22T05:23:28;94630.97;;;9.83;82.77
41062;BME280;26812;42.662;23.352;2023-03-22T05:25:54;94607.72;;;9.61;82.75
41062;BME280;26812;42.662;23.352;2023-03-22T05:28:23;94631.25;;;9.47;83.65
41062;BME280;26812;42.662;23.352;2023-03-22T05:30:49;94623.38;;;9.59;84.54
41062;BME280;26812;42.662;23.352;2023-03-22T05:33:16;94638.50;;;10.07;82.61
41062;BME280;26812;42.662;23.352;2023-03-22T05:35:45;94615.91;;;9.91;82.26
41062;BME280;26812;42.662;23.352;2023-03-22T05:38:11;94635.03;;;10.07;81.68
41062;BME280;26812;42.662;23.352;2023-03-22T05:40:36;94632.19;;;10.03;81.31
41062;BME280;26812;42.662;23.352;2023-03-22T05:43:01;94624.78;;;9.83;82.12
41062;BME280;26812;42.662;23.352;2023-03-22T05:45:27;94629.53;;;9.77;82.59
41062;BME280;26812;42.662;23.352;2023-03-22T05:47:52;94649.31;;;9.73;83.26
41062;BME280;26812;42.662;23.352;2023-03-22T05:50:20;94639.16;;;9.78;82.70
41062;BME280;26812;42.662;23.352;2023-03-22T05:52:46;94648.53;;;9.81;82.85
41062;BME280;26812;42.662;23.352;2023-03-22T05:55:13;94642.66;;;9.87;82.60
41062;BME280;26812;42.662;23.352;2023-03-22T05:57:42;94637.44;;;9.74;82.61
41062;BME280;26812;42.662;23.352;2023-03-22T06:00:10;94661.19;;;9.72;82.79
41062;BME280;26812;42.662;23.352;2023-03-22T06:02:38;94655.78;;;9.72;82.79
41062;BME280;26812;42.662;23.352;2023-03-22T06:05:03;94601.38;;;9.40;83.29
41062;BME280;26812;42.662;23.352;2023-03-22T06:07:29;94658.00;;;9.70;83.39
41062;BME280;26812;42.662;23.352;2023-03-22T06:09:54;94671.00;;;9.85;82.12
41062;BME280;26812;42.662;23.352;2023-03-22T06:12:20;94664.50;;;9.77;81.80
41062;BME280;26812;42.662;23.352;2023-03-22T06:14:49;94660.09;;;9.81;82.62
41062;BME280;26812;42.662;23.352;2023-03-22T06:17:14;94659.59;;;9.71;82.07
41062;BME280;26812;42.662;23.352;2023-03-22T06:19:40;94658.03;;;9.87;82.86
41062;BME280;26812;42.662;23.352;2023-03-22T06:22:05;94661.47;;;10.05;81.71
41062;BME280;26812;42.662;23.352;2023-03-22T06:24:31;94654.03;;;10.02;81.79
41062;BME280;26812;42.662;23.352;2023-03-22T06:26:56;94663.84;;;9.98;82.29
41062;BME280;26812;42.662;23.352;2023-03-22T06:29:21;94676.38;;;9.93;82.95
41062;BME280;26812;42.662;23.352;2023-03-22T06:31:47;94668.75;;;10.13;82.46
41062;BME280;26812;42.662;23.352;2023-03-22T06:34:12;94667.50;;;10.02;82.36
41062;BME280;26812;42.662;23.352;2023-03-22T06:36:38;94667.16;;;10.29;81.26
41062;BME280;26812;42.662;23.352;2023-03-22T06:39:03;94684.06;;;10.38;81.10
41062;BME280;26812;42.662;23.352;2023-03-22T06:41:29;94686.31;;;10.45;80.57
41062;BME280;26812;42.662;23.352;2023-03-22T06:43:55;94671.72;;;10.37;80.46
41062;BME280;26812;42.662;23.352;2023-03-22T06:46:20;94667.31;;;10.33;80.84
41062;BME280;26812;42.662;23.352;2023-03-22T06:48:46;94683.47;;;10.41;80.62
41062;BME280;26812;42.662;23.352;2023-03-22T06:51:11;94664.56;;;10.50;80.17
41062;BME280;26812;42.662;23.352;2023-03-22T06:53:37;94659.16;;;10.58;79.28
41062;BME280;26812;42.662;23.352;2023-03-22T06:56:02;94689.81;;;10.83;78.56
41062;BME280;26812;42.662;23.352;2023-03-22T06:58:28;94669.28;;;10.62;79.11
41062;BME280;26812;42.662;23.352;2023-03-22T07:00:56;94683.56;;;10.53;79.71
41062;BME280;26812;42.662;23.352;2023-03-22T07:03:22;94688.28;;;10.74;77.78
41062;BME280;26812;42.662;23.352;2023-03-22T07:05:48;94698.97;;;10.91;78.01
41062;BME280;26812;42.662;23.352;2023-03-22T07:08:13;94697.63;;;10.76;78.01
41062;BME280;26812;42.662;23.352;2023-03-22T07:10:40;94679.41;;;10.73;78.08
41062;BME280;26812;42.662;23.352;2023-03-22T07:13:06;94704.19;;;10.96;77.97
41062;BME280;26812;42.662;23.352;2023-03-22T07:15:31;94673.84;;;10.70;78.38
41062;BME280;26812;42.662;23.352;2023-03-22T07:17:59;94707.25;;;10.86;78.59
41062;BME280;26812;42.662;23.352;2023-03-22T07:20:25;94703.78;;;10.77;79.62
41062;BME280;26812;42.662;23.352;2023-03-22T07:22:51;94716.81;;;11.13;78.44
41062;BME280;26812;42.662;23.352;2023-03-22T07:25:17;94713.59;;;11.19;77.55
41062;BME280;26812;42.662;23.352;2023-03-22T07:27:43;94704.19;;;10.96;77.54
41062;BME280;26812;42.662;23.352;2023-03-22T07:30:08;94717.97;;;11.03;78.15
41062;BME280;26812;42.662;23.352;2023-03-22T07:32:34;94723.69;;;10.93;79.17
41062;BME280;26812;42.662;23.352;2023-03-22T07:34:59;94720.75;;;10.69;78.44
41062;BME280;26812;42.662;23.352;2023-03-22T07:37:25;94714.16;;;10.49;79.65
41062;BME280;26812;42.662;23.352;2023-03-22T07:39:51;94730.31;;;10.40;80.14
41062;BME280;26812;42.662;23.352;2023-03-22T07:42:16;94704.50;;;10.39;80.42
41062;BME280;26812;42.662;23.352;2023-03-22T07:44:42;94726.84;;;10.48;80.07
41062;BME280;26812;42.662;23.352;2023-03-22T07:47:08;94701.03;;;10.39;80.18
41062;BME280;26812;42.662;23.352;2023-03-22T07:49:33;94719.84;;;10.56;80.31
41062;BME280;26812;42.662;23.352;2023-03-22T07:51:59;94732.31;;;10.78;79.93
41062;BME280;26812;42.662;23.352;2023-03-22T07:54:24;94722.25;;;11.04;76.63
41062;BME280;26812;42.662;23.352;2023-03-22T07:56:50;94716.69;;;11.01;76.47
41062;BME280;26812;42.662;23.352;2023-03-22T07:59:15;94738.78;;;10.85;76.76
41062;BME280;26812;42.662;23.352;2023-03-22T08:01:42;94725.06;;;10.61;76.71
41062;BME280;26812;42.662;23.352;2023-03-22T08:04:07;94722.69;;;10.60;77.72
41062;BME280;26812;42.662;23.352;2023-03-22T08:06:33;94724.66;;;10.88;77.59
41062;BME280;26812;42.662;23.352;2023-03-22T08:09:01;94730.81;;;10.98;75.28
41062;BME280;26812;42.662;23.352;2023-03-22T08:11:27;94742.25;;;10.95;76.13
41062;BME280;26812;42.662;23.352;2023-03-22T08:13:52;94724.72;;;10.80;76.24
41062;BME280;26812;42.662;23.352;2023-03-22T08:16:19;94719.31;;;10.71;76.48
41062;BME280;26812;42.662;23.352;2023-03-22T08:18:45;94729.78;;;10.81;77.24
41062;BME280;26812;42.662;23.352;2023-03-22T08:21:10;94743.44;;;11.14;76.18
41062;BME280;26812;42.662;23.352;2023-03-22T08:23:36;94727.13;;;11.11;75.33
41062;BME280;26812;42.662;23.352;2023-03-22T08:26:01;94688.59;;;10.72;76.08
41062;BME280;26812;42.662;23.352;2023-03-22T08:28:27;94697.69;;;10.50;76.61
41062;BME280;26812;42.662;23.352;2023-03-22T08:30:55;94739.97;;;10.58;77.98
41062;BME280;26812;42.662;23.352;2023-03-22T08:33:20;94730.34;;;10.49;78.47
41062;BME280;26812;42.662;23.352;2023-03-22T08:35:49;94738.53;;;10.61;78.67
41062;BME280;26812;42.662;23.352;2023-03-22T08:38:15;94724.47;;;10.47;79.12
41062;BME280;26812;42.662;23.352;2023-03-22T08:40:40;94721.31;;;10.45;79.71
41062;BME280;26812;42.662;23.352;2023-03-22T08:43:06;94752.47;;;10.72;79.51
41062;BME280;26812;42.662;23.352;2023-03-22T08:45:32;94744.47;;;10.93;78.01
41062;BME280;26812;42.662;23.352;2023-03-22T08:47:57;94721.13;;;10.97;76.96
41062;BME280;26812;42.662;23.352;2023-03-22T08:50:25;94752.19;;;11.41;75.71
41062;BME280;26812;42.662;23.352;2023-03-22T08:52:50;94738.38;;;11.13;75.90
41062;BME280;26812;42.662;23.352;2023-03-22T08:55:17;94741.72;;;11.10;76.51
41062;BME280;26812;42.662;23.352;2023-03-22T08:57:44;94757.28;;;11.04;77.51
41062;BME280;26812;42.662;23.352;2023-03-22T09:00:15;94759.81;;;11.01;77.90
41062;BME280;26812;42.662;23.352;2023-03-22T09:02:42;94736.13;;;10.77;78.67
41062;BME280;26812;42.662;23.352;2023-03-22T09:05:08;94736.78;;;10.74;78.45
41062;BME280;26812;42.662;23.352;2023-03-22T09:07:34;94751.03;;;10.74;79.09
41062;BME280;26812;42.662;23.352;2023-03-22T09:10:09;94763.22;;;10.80;79.70
41062;BME280;26812;42.662;23.352;2023-03-22T09:12:35;94748.59;;;10.90;78.13
41062;BME280;26812;42.662;23.352;2023-03-22T09:15:01;94721.72;;;10.64;78.22
41062;BME280;26812;42.662;23.352;2023-03-22T09:17:26;94739.16;;;10.75;78.29
41062;BME280;26812;42.662;23.352;2023-03-22T09:19:52;94755.38;;;11.05;77.04
41062;BME280;26812;42.662;23.352;2023-03-22T09:22:17;94760.31;;;11.03;76.41
41062;BME280;26812;42.662;23.352;2023-03-22T09:24:43;94756.63;;;11.07;75.59
41062;BME280;26812;42.662;23.352;2023-03-22T09:27:08;94770.31;;;11.02;76.33
41062;BME280;26812;42.662;23.352;2023-03-22T09:29:34;94772.34;;;11.05;76.98
41062;BME280;26812;42.662;23.352;2023-03-22T09:31:59;94769.97;;;11.04;77.13
41062;BME280;26812;42.662;23.352;2023-03-22T09:34:38;94755.84;;;10.98;77.77
41062;BME280;26812;42.662;23.352;2023-03-22T09:37:04;94765.81;;;11.15;77.41
41062;BME280;26812;42.662;23.352;2023-03-22T09:39:30;94772.72;;;11.33;75.47
41062;BME280;26812;42.662;23.352;2023-03-22T09:42:03;94775.22;;;11.38;75.41
41062;BME280;26812;42.662;23.352;2023-03-22T09:44:38;94770.09;;;11.45;76.27
41062;BME280;26812;42.662;23.352;2023-03-22T09:47:09;94758.59;;;11.28;75.51
41062;BME280;26812;42.662;23.352;2023-03-22T09:49:39;94770.03;;;11.33;75.85
41062;BME280;26812;42.662;23.352;2023-03-22T09:52:14;94777.97;;;11.59;76.16
41062;BME280;26812;42.662;23.352;2023-03-22T09:54:42;94767.59;;;11.70;75.72
41062;BME280;26812;42.662;23.352;2023-03-22T09:57:32;94774.53;;;11.79;75.63
41062;BME280;26812;42.662;23.352;2023-03-22T10:05:39;94772.22;;;12.53;72.65
41062;BME280;26812;42.662;23.352;2023-03-22T10:08:43;94780.75;;;12.75;71.15
41062;BME280;26812;42.662;23.352;2023-03-22T10:11:41;94789.09;;;12.70;70.76
41062;BME280;26812;42.662;23.352;2023-03-22T10:14:35;94781.78;;;12.50;70.70
41062;BME280;26812;42.662;23.352;2023-03-22T10:17:07;94786.03;;;12.39;71.26
41062;BME280;26812;42.662;23.352;2023-03-22T10:19:52;94754.75;;;12.50;70.84
41062;BME280;26812;42.662;23.352;2023-03-22T10:22:25;94781.09;;;12.74;69.64
41062;BME280;26812;42.662;23.352;2023-03-22T10:24:54;94783.78;;;12.41;70.97
41062;BME280;26812;42.662;23.352;2023-03-22T10:27:21;94786.09;;;12.09;72.01
41062;BME280;26812;42.662;23.352;2023-03-22T10:32:24;94789.72;;;11.55;74.45
41062;BME280;26812;42.662;23.352;2023-03-22T10:34:53;94767.47;;;11.37;75.46
41062;BME280;26812;42.662;23.352;2023-03-22T10:37:22;94776.03;;;11.39;75.71
41062;BME280;26812;42.662;23.352;2023-03-22T10:39:51;94783.91;;;11.44;76.25
41062;BME280;26812;42.662;23.352;2023-03-22T10:42:22;94778.19;;;11.75;75.42
41062;BME280;26812;42.662;23.352;2023-03-22T10:44:53;94786.28;;;12.04;73.47
41062;BME280;26812;42.662;23.352;2023-03-22T10:47:30;94789.50;;;12.19;72.75
41062;BME280;26812;42.662;23.352;2023-03-22T10:49:59;94774.94;;;11.90;72.87
41062;BME280;26812;42.662;23.352;2023-03-22T10:52:50;94781.78;;;11.88;73.48
41062;BME280;26812;42.662;23.352;2023-03-22T10:55:14;94779.38;;;12.16;72.92
41062;BME280;26812;42.662;23.352;2023-03-22T10:57:48;94783.72;;;12.29;71.81
41062;BME280;26812;42.662;23.352;2023-03-22T11:00:15;94748.69;;;11.99;72.87
41062;BME280;26812;42.662;23.352;2023-03-22T11:02:52;94782.22;;;11.69;73.15
41062;BME280;26812;42.662;23.352;2023-03-22T11:05:28;94762.47;;;11.18;74.50
41062;BME280;26812;42.662;23.352;2023-03-22T11:07:55;94779.84;;;11.38;74.33
41062;BME280;26812;42.662;23.352;2023-03-22T11:13:10;94777.16;;;11.59;70.15
41062;BME280;26812;42.662;23.352;2023-03-22T11:15:42;94776.03;;;11.39;70.78
41062;BME280;26812;42.662;23.352;2023-03-22T11:18:15;94772.53;;;11.68;70.16
41062;BME280;26812;42.662;23.352;2023-03-22T11:20:50;94769.31;;;12.04;71.12
41062;BME280;26812;42.662;23.352;2023-03-22T11:23:18;94722.47;;;11.79;69.92
41062;BME280;26812;42.662;23.352;2023-03-22T11:25:46;94768.50;;;12.03;70.45
41062;BME280;26812;42.662;23.352;2023-03-22T11:28:59;94774.56;;;12.42;69.24
41062;BME280;26812;42.662;23.352;2023-03-22T11:31:19;94768.50;;;12.03;68.60
41062;BME280;26812;42.662;23.352;2023-03-22T11:33:57;94751.44;;;11.91;69.88
41062;BME280;26812;42.662;23.352;2023-03-22T11:36:23;94771.41;;;12.40;69.49
41062;BME280;26812;42.662;23.352;2023-03-22T11:39:01;94769.16;;;12.21;68.13
41062;BME280;26812;42.662;23.352;2023-03-22T11:41:35;94770.19;;;11.87;68.36
41062;BME280;26812;42.662;23.352;2023-03-22T11:44:04;94758.47;;;11.83;68.95
41062;BME280;26812;42.662;23.352;2023-03-22T11:46:31;94758.03;;;11.81;68.45
41062;BME280;26812;42.662;23.352;2023-03-22T11:49:00;94751.97;;;11.55;69.66
41062;BME280;26812;42.662;23.352;2023-03-22T11:51:29;94762.09;;;11.87;69.93
41062;BME280;26812;42.662;23.352;2023-03-22T11:54:35;94760.13;;;12.17;68.33
41062;BME280;26812;42.662;23.352;2023-03-22T11:57:05;94757.09;;;12.19;67.89
41062;BME280;26812;42.662;23.352;2023-03-22T11:59:41;94774.44;;;11.97;68.89
41062;BME280;26812;42.662;23.352;2023-03-22T12:04:40;94761.38;;;11.78;70.12
41062;BME280;26812;42.662;23.352;2023-03-22T12:07:15;94771.28;;;11.65;70.53
41062;BME280;26812;42.662;23.352;2023-03-22T12:10:00;94766.28;;;11.46;71.20
41062;BME280;26812;42.662;23.352;2023-03-22T12:12:37;94745.91;;;11.28;72.34
41062;BME280;26812;42.662;23.352;2023-03-22T12:17:47;94753.03;;;11.62;71.55
41062;BME280;26812;42.662;23.352;2023-03-22T12:22:53;94768.97;;;11.76;70.68
41062;BME280;26812;42.662;23.352;2023-03-22T12:25:32;94760.75;;;11.72;71.36
41062;BME280;26812;42.662;23.352;2023-03-22T12:28:05;94758.81;;;11.81;71.29
41062;BME280;26812;42.662;23.352;2023-03-22T12:30:52;94754.78;;;11.88;70.51
41062;BME280;26812;42.662;23.352;2023-03-22T12:33:25;94750.84;;;11.85;70.14
41062;BME280;26812;42.662;23.352;2023-03-22T12:35:56;94761.38;;;11.78;69.27
41062;BME280;26812;42.662;23.352;2023-03-22T12:40:53;94751.41;;;12.53;69.22
41062;BME280;26812;42.662;23.352;2023-03-22T12:43:41;94752.03;;;12.71;64.97
41062;BME280;26812;42.662;23.352;2023-03-22T12:46:18;94747.66;;;12.79;65.83
41062;BME280;26812;42.662;23.352;2023-03-22T12:48:49;94727.53;;;12.88;63.86
41062;BME280;26812;42.662;23.352;2023-03-22T12:51:16;94734.84;;;13.00;62.72
41062;BME280;26812;42.662;23.352;2023-03-22T12:53:46;94757.72;;;13.48;62.22
41062;BME280;26812;42.662;23.352;2023-03-22T12:56:17;94745.03;;;13.88;61.20
41062;BME280;26812;42.662;23.352;2023-03-22T12:58:48;94738.22;;;14.07;60.17
41062;BME280;26812;42.662;23.352;2023-03-22T13:03:48;94738.13;;;14.31;58.69
41062;BME280;26812;42.662;23.352;2023-03-22T13:11:34;94750.38;;;13.60;60.91
41062;BME280;26812;42.662;23.352;2023-03-22T13:14:00;94750.34;;;13.85;60.15
41062;BME280;26812;42.662;23.352;2023-03-22T13:17:02;94746.19;;;13.63;60.03
41062;BME280;26812;42.662;23.352;2023-03-22T13:19:33;94730.41;;;13.28;61.92
41062;BME280;26812;42.662;23.352;2023-03-22T13:22:18;94749.56;;;13.35;61.74
41062;BME280;26812;42.662;23.352;2023-03-22T13:27:56;94740.72;;;13.14;60.67
41062;BME280;26812;42.662;23.352;2023-03-22T13:35:47;94723.44;;;12.82;64.35
41062;BME280;26812;42.662;23.352;2023-03-22T13:38:39;94732.94;;;13.13;64.85
41062;BME280;26812;42.662;23.352;2023-03-22T13:43:47;94746.13;;;13.02;67.68
41062;BME280;26812;42.662;23.352;2023-03-22T13:58:59;94748.34;;;13.57;64.78
41062;BME280;26812;42.662;23.352;2023-03-22T14:01:29;94738.19;;;13.79;65.12
41062;BME280;26812;42.662;23.352;2023-03-22T14:04:00;94746.41;;;13.46;62.50
41062;BME280;26812;42.662;23.352;2023-03-22T14:06:30;94743.38;;;13.35;62.64
41062;BME280;26812;42.662;23.352;2023-03-22T14:09:01;94735.91;;;13.81;62.61
41062;BME280;26812;42.662;23.352;2023-03-22T14:11:53;94745.94;;;13.92;60.46
41062;BME280;26812;42.662;23.352;2023-03-22T14:14:24;94726.53;;;13.90;60.52
41062;BME280;26812;42.662;23.352;2023-03-22T14:16:59;94744.16;;;13.84;60.73
41062;BME280;26812;42.662;23.352;2023-03-22T14:19:29;94739.56;;;14.13;59.65
41062;BME280;26812;42.662;23.352;2023-03-22T14:22:00;94721.38;;;13.36;60.97
41062;BME280;26812;42.662;23.352;2023-03-22T14:24:29;94743.31;;;12.98;63.06
41062;BME280;26812;42.662;23.352;2023-03-22T14:26:58;94726.28;;;12.98;64.02
41062;BME280;26812;42.662;23.352;2023-03-22T14:29:26;94744.56;;;13.01;64.41
41062;BME280;26812;42.662;23.352;2023-03-22T14:32:04;94730.09;;;12.19;66.49
41062;BME280;26812;42.662;23.352;2023-03-22T14:34:31;94737.63;;;12.13;65.95
41062;BME280;26812;42.662;23.352;2023-03-22T14:37:00;94730.88;;;12.40;64.73